»·PEaware :: N455TP KONT-KVCV

N455TP :: KONT-KVCV

FLIGHT INFORMATION

Flight Status: Arrived
Operator: Privately registered:
United States
More flights under this callsign
Pilot: Adam R. (28816)
Aircraft: Cessna 700 Citation Longitude
(C700)
More flights by this aircraft type
Origin: KONT Ontario Intl
United States
Destination: KVCV Socal Logistics
United States
More flights between these airports :: More routes between these airports
Route: +PDZ V442 APLES
File this flight plan on PilotEdge
Remarks:
Altitude:
(Current/Filed)
7,000ft
Speed:
(Current/Filed)
475kts
Departed: 22-Oct-20 11:41 AM
Arrived: 22-Oct-20 12:01 PM
Distance/Time
Traveled:
6755nm/0:20
Distance/Time
To Go:
Arrived

Flight Plot

Page will automatically refresh every two minutes.


Map Options




Map Legend


Flown Route
Filed Route
Departure Airport
Arrival Airport
Navaid (VOR, NDB)
Fix

Horizontal Profiles

Position Reports

Time Latitude Longitude Heading Altitude Ground
Speed
22-Oct-20 11:16 34.053158 -117.613300 43 941ft 0kts
22-Oct-20 11:17 34.053158 -117.613300 43 941ft 0kts
22-Oct-20 11:18 34.053158 -117.613300 43 941ft 0kts
22-Oct-20 11:19 34.053158 -117.613300 43 941ft 0kts
22-Oct-20 11:20 34.053158 -117.613300 43 941ft 0kts
22-Oct-20 11:22 34.053158 -117.613300 43 941ft 0kts
22-Oct-20 11:23 34.053158 -117.613300 43 941ft 0kts
22-Oct-20 11:24 34.053158 -117.613300 43 941ft 0kts
22-Oct-20 11:25 34.053158 -117.613300 43 941ft 0kts
22-Oct-20 11:26 34.053158 -117.613300 43 941ft 0kts
22-Oct-20 11:27 34.053158 -117.613300 43 941ft 0kts
22-Oct-20 11:28 34.053158 -117.613300 43 941ft 0kts
22-Oct-20 11:29 34.053158 -117.613300 43 941ft 0kts
22-Oct-20 11:30 34.053863 -117.611616 90 940ft 14kts
22-Oct-20 11:31 34.053871 -117.606755 90 936ft 10kts
22-Oct-20 11:32 34.053869 -117.601300 90 935ft 26kts
22-Oct-20 11:33 34.053872 -117.592997 90 933ft 19kts
22-Oct-20 11:34 34.053875 -117.586208 89 929ft 23kts
22-Oct-20 11:35 34.053937 -117.583013 60 929ft 0kts
22-Oct-20 11:36 34.053937 -117.583013 60 929ft 0kts
22-Oct-20 11:37 34.053937 -117.583013 60 929ft 0kts
22-Oct-20 11:38 34.053937 -117.583013 60 929ft 0kts
22-Oct-20 11:39 34.054968 -117.583406 275 929ft 16kts
22-Oct-20 11:40 34.056907 -117.642116 273 3136ft 253kts
22-Oct-20 11:41 34.037855 -117.714977 192 6844ft 260kts
22-Oct-20 11:42 33.990862 -117.656971 99 8801ft 288kts
22-Oct-20 11:43 33.959498 -117.572234 130 8902ft 286kts
22-Oct-20 11:44 33.909627 -117.502677 89 8934ft 288kts
22-Oct-20 11:45 33.969738 -117.463563 346 8905ft 288kts
22-Oct-20 11:46 34.048134 -117.453672 22 8888ft 288kts
22-Oct-20 11:47 34.119194 -117.409483 24 8878ft 289kts
22-Oct-20 11:48 34.191199 -117.365951 26 8869ft 288kts
22-Oct-20 11:49 34.262790 -117.322701 26 8855ft 288kts
22-Oct-20 11:51 34.334647 -117.279316 26 8849ft 287kts
22-Oct-20 11:52 34.406795 -117.237542 12 8848ft 288kts
22-Oct-20 11:53 34.486544 -117.241655 351 8835ft 287kts
22-Oct-20 11:54 34.565875 -117.255167 351 8018ft 286kts
22-Oct-20 11:55 34.644105 -117.267837 352 6509ft 276kts
22-Oct-20 11:56 34.712906 -117.287775 317 4870ft 232kts
22-Oct-20 11:57 34.720503 -117.350170 228 4159ft 207kts
22-Oct-20 11:58 34.687665 -117.385594 196 4116ft 149kts
22-Oct-20 11:59 34.645666 -117.386739 180 3349ft 150kts
22-Oct-20 12:00 34.607736 -117.386652 179 2843ft 68kts
22-Oct-20 12:01 34.596832 -117.386570 179 2866ft 31kts
22-Oct-20 12:02 34.592566 -117.381201 134 2867ft 27kts
22-Oct-20 12:03 34.589933 -117.376302 45 2866ft 14kts
22-Oct-20 12:04 34.592105 -117.372439 83 2861ft 9kts
22-Oct-20 12:05 34.592597 -117.371947 345 2860ft 0kts
22-Oct-20 12:05 0.000407 0.013975 0 3ft 0kts
22-Oct-20 12:07 0.000407 0.013975 0 3ft 0kts

Navigation Log

Ident Type
Flight plan parsing failed, navigation log unavailable